createdAt,value
2022-10-11T04:05:48.504Z,5.28
2022-10-11T04:08:51.463Z,5.25
2022-10-11T04:11:53.844Z,5.30
2022-10-11T04:14:56.547Z,5.53
2022-10-11T04:17:59.034Z,5.57
2022-10-11T04:21:01.842Z,4.80
2022-10-11T04:24:04.570Z,4.90
2022-10-11T04:27:07.328Z,4.78
2022-10-11T04:30:11.264Z,5.10
2022-10-11T04:33:14.422Z,5.10
2022-10-11T04:36:16.837Z,4.95
2022-10-11T04:39:19.563Z,5.28
2022-10-11T04:42:22.171Z,5.07
2022-10-11T04:45:24.917Z,4.65
2022-10-11T04:48:27.444Z,4.85
2022-10-11T04:51:30.396Z,4.75
2022-10-11T04:54:32.952Z,5.20
2022-10-11T04:57:35.725Z,5.05
2022-10-11T05:00:38.169Z,4.97
2022-10-11T05:03:41.159Z,5.05
2022-10-11T05:06:43.642Z,5.47
2022-10-11T05:09:46.369Z,5.60
2022-10-11T05:12:48.803Z,5.35
2022-10-11T05:15:51.791Z,5.20
2022-10-11T05:18:54.292Z,4.80
2022-10-11T05:21:57.439Z,5.18
2022-10-11T05:24:59.921Z,4.93
2022-10-11T05:28:02.647Z,5.45
2022-10-11T05:31:05.750Z,5.18
2022-10-11T05:34:08.561Z,4.60
2022-10-11T05:37:11.045Z,4.95
2022-10-11T05:40:13.834Z,4.87
2022-10-11T05:43:16.422Z,4.78
2022-10-11T05:46:19.230Z,4.85
2022-10-11T05:49:21.766Z,4.87
2022-10-11T05:52:24.586Z,5.00
2022-10-11T05:55:27.541Z,5.03
2022-10-11T05:58:31.150Z,5.78
2022-10-11T06:01:33.764Z,4.80
2022-10-11T06:04:37.209Z,4.78
2022-10-11T06:07:39.840Z,5.18
2022-10-11T06:10:42.671Z,4.85
2022-10-11T06:13:45.150Z,5.10
2022-10-11T06:16:47.839Z,5.15
2022-10-11T06:19:51.330Z,4.80
2022-10-11T06:22:54.164Z,5.05
2022-10-11T06:26:02.209Z,4.55
2022-10-11T06:29:05.916Z,4.40
2022-10-11T06:32:08.346Z,4.15
2022-10-11T06:35:11.139Z,4.50
2022-10-11T06:38:13.745Z,4.82
2022-10-11T06:41:18.672Z,5.20
2022-10-11T06:44:21.092Z,4.70
2022-10-11T06:47:23.848Z,4.43
2022-10-11T06:50:47.522Z,4.60
2022-10-11T06:53:50.856Z,5.25
2022-10-11T06:56:53.353Z,4.53
2022-10-11T06:59:56.208Z,5.37
2022-10-11T07:02:58.738Z,5.22
2022-10-11T07:06:03.758Z,5.37
2022-10-11T07:09:07.922Z,4.70
2022-10-11T07:12:10.710Z,4.72
2022-10-11T07:15:13.161Z,5.05
2022-10-11T07:18:15.922Z,5.28
2022-10-11T07:21:18.468Z,4.75
2022-10-11T07:24:21.251Z,4.62
2022-10-11T07:27:23.799Z,5.15
2022-10-11T07:30:26.680Z,5.53
2022-10-11T07:33:29.089Z,4.95
2022-10-11T07:36:32.031Z,4.75
2022-10-11T07:39:34.872Z,4.70
2022-10-11T07:42:37.999Z,4.90
2022-10-11T07:45:41.859Z,5.03
2022-10-11T07:48:44.761Z,4.62
2022-10-11T07:51:47.330Z,4.85
2022-10-11T07:54:50.091Z,4.87
2022-10-11T07:57:52.588Z,5.20
2022-10-11T08:00:55.688Z,4.65
2022-10-11T08:03:59.156Z,4.68
2022-10-11T08:07:01.584Z,4.90
2022-10-11T08:10:06.197Z,4.80
2022-10-11T08:13:08.729Z,5.20
2022-10-11T08:16:12.736Z,4.53
2022-10-11T08:19:16.187Z,5.00
2022-10-11T08:22:18.999Z,5.37
2022-10-11T08:25:21.488Z,4.80
2022-10-11T08:28:24.724Z,4.90
2022-10-11T08:31:27.172Z,5.30
2022-10-11T08:34:29.859Z,5.60
2022-10-11T08:37:32.261Z,5.10
2022-10-11T08:40:35.551Z,5.60
2022-10-11T08:44:06.114Z,5.57
2022-10-11T08:47:21.101Z,5.70
2022-10-11T08:50:24.177Z,5.90
2022-10-11T08:53:51.720Z,6.05
2022-10-11T08:56:54.368Z,5.45
2022-10-11T09:00:05.132Z,7.12
2022-10-11T09:03:09.339Z,6.87
2022-10-11T09:06:16.265Z,7.07
2022-10-11T09:09:21.861Z,6.55
2022-10-11T09:13:04.547Z,6.10
2022-10-11T09:16:17.695Z,6.75
2022-10-11T09:19:51.570Z,7.60
2022-10-11T09:23:14.107Z,6.50
2022-10-11T09:26:31.161Z,6.70
2022-10-11T09:30:02.552Z,6.72
2022-10-11T09:33:33.193Z,6.95
2022-10-11T09:37:00.126Z,6.80
2022-10-11T09:40:12.000Z,7.05
2022-10-11T09:43:14.569Z,6.25
2022-10-11T09:46:31.747Z,6.70
2022-10-11T09:49:42.769Z,6.45
2022-10-11T09:53:05.131Z,5.75
2022-10-11T09:56:08.322Z,6.25
2022-10-11T09:59:35.140Z,5.55
2022-10-11T10:02:47.028Z,6.80
2022-10-11T10:06:22.110Z,6.40
2022-10-11T10:09:30.454Z,6.65
2022-10-11T10:12:33.247Z,6.55
2022-10-11T10:15:38.105Z,7.30
2022-10-11T10:18:59.667Z,6.90
2022-10-11T10:22:02.181Z,6.20
2022-10-11T10:25:08.117Z,7.30
2022-10-11T10:28:21.009Z,7.07
2022-10-11T10:31:29.746Z,7.12
2022-10-11T10:34:36.426Z,6.70
2022-10-11T10:37:44.041Z,7.00
2022-10-11T10:40:56.727Z,6.85
2022-10-11T10:44:00.799Z,7.50
2022-10-11T10:47:20.831Z,7.20
2022-10-11T10:50:45.641Z,7.20
2022-10-11T10:53:58.457Z,7.40
2022-10-11T10:57:04.389Z,7.47
2022-10-11T11:00:19.837Z,7.50
2022-10-11T11:03:34.027Z,8.27
2022-10-11T11:06:48.835Z,7.85
2022-10-11T11:09:59.732Z,7.25
2022-10-11T11:13:04.847Z,7.65
2022-10-11T11:16:18.694Z,7.43
2022-10-11T11:19:38.419Z,7.40
2022-10-11T11:22:47.695Z,7.68
2022-10-11T11:26:15.635Z,7.43
2022-10-11T11:29:43.604Z,7.93
2022-10-11T11:32:52.017Z,7.35
2022-10-11T11:36:01.389Z,7.30
2022-10-11T11:39:07.065Z,7.05
2022-10-11T11:42:18.041Z,7.07
2022-10-11T11:45:46.831Z,7.18
2022-10-11T11:48:52.778Z,6.93
2022-10-11T11:51:56.653Z,6.62
2022-10-11T11:55:16.689Z,7.28
2022-10-11T11:58:43.992Z,7.78
2022-10-11T12:02:11.741Z,7.47
2022-10-11T12:05:18.707Z,6.60
2022-10-11T12:08:27.584Z,6.90
2022-10-11T12:11:42.042Z,6.85
2022-10-11T12:14:44.784Z,7.25
2022-10-11T12:17:53.232Z,7.82
2022-10-11T12:21:06.122Z,6.60
2022-10-11T12:24:31.542Z,7.75
2022-10-11T12:27:43.366Z,7.12
2022-10-11T12:30:55.556Z,7.00
2022-10-11T12:34:01.118Z,6.50
2022-10-11T12:37:27.072Z,7.05
2022-10-11T12:40:45.866Z,6.95
2022-10-11T12:43:48.639Z,7.35
2022-10-11T12:46:51.058Z,6.87
2022-10-11T12:49:59.383Z,7.15
2022-10-11T12:53:18.248Z,6.78
2022-10-11T12:56:44.890Z,6.60
2022-10-11T12:59:47.471Z,6.78
2022-10-11T13:02:50.394Z,6.90
2022-10-11T13:06:01.331Z,7.43
2022-10-11T13:09:15.760Z,7.20
2022-10-11T13:12:21.839Z,6.97
2022-10-11T13:15:24.893Z,7.00
2022-10-11T13:18:27.378Z,7.82
2022-10-11T13:21:34.624Z,8.02
2022-10-11T13:24:39.756Z,7.05
2022-10-11T13:27:43.413Z,7.68
2022-10-11T13:30:53.226Z,7.20
2022-10-11T13:34:17.582Z,7.32
2022-10-11T13:37:25.575Z,7.77
2022-10-11T13:40:29.537Z,7.30
2022-10-11T13:43:32.841Z,7.20
2022-10-11T13:46:37.611Z,8.00
2022-10-11T13:49:45.814Z,7.82
2022-10-11T13:52:57.325Z,7.57
2022-10-11T13:56:04.365Z,7.32
2022-10-11T13:59:07.209Z,7.40
2022-10-11T14:02:20.215Z,7.80
2022-10-11T14:05:30.349Z,7.60
2022-10-11T14:08:42.275Z,7.87
2022-10-11T14:11:45.520Z,7.10
2022-10-11T14:14:48.110Z,7.62
2022-10-11T14:17:51.504Z,7.10
2022-10-11T14:20:54.337Z,7.50
2022-10-11T14:24:00.484Z,7.87
2022-10-11T14:27:05.958Z,8.25
2022-10-11T14:30:27.437Z,7.78
2022-10-11T14:33:30.184Z,7.90
2022-10-11T14:36:35.076Z,7.37
2022-10-11T14:39:37.787Z,8.23
2022-10-11T14:42:41.893Z,8.55
2022-10-11T14:45:44.390Z,7.75
2022-10-11T14:48:55.660Z,7.50
2022-10-11T14:51:59.341Z,7.82
2022-10-11T14:55:02.238Z,8.52
2022-10-11T14:58:06.095Z,7.82
2022-10-11T15:01:13.954Z,8.57
2022-10-11T15:04:16.627Z,7.53
2022-10-11T15:07:19.414Z,7.93
2022-10-11T15:10:27.454Z,8.05
2022-10-11T15:13:30.212Z,8.15
2022-10-11T15:16:33.397Z,8.40
2022-10-11T15:19:36.564Z,8.00
2022-10-11T15:22:39.102Z,8.07
2022-10-11T15:25:42.596Z,7.70
2022-10-11T15:28:45.940Z,7.72
2022-10-11T15:31:49.505Z,7.70
2022-10-11T15:34:52.023Z,8.07
2022-10-11T15:37:57.494Z,7.82
2022-10-11T15:41:00.222Z,8.00
2022-10-11T15:44:02.916Z,8.00
2022-10-11T15:47:05.412Z,7.60
2022-10-11T15:50:34.038Z,8.05
2022-10-11T15:53:36.837Z,8.45
